sensor_id;sensor_type;location;lat;lon;timestamp;temperature;humidity
72604;DHT22;60645;56.968;24.196;2022-08-21T00:00:25;21.70;76.20
72604;DHT22;60645;56.968;24.196;2022-08-21T00:03:02;21.80;76.00
72604;DHT22;60645;56.968;24.196;2022-08-21T00:05:30;21.80;75.80
72604;DHT22;60645;56.968;24.196;2022-08-21T00:07:58;21.80;76.00
72604;DHT22;60645;56.968;24.196;2022-08-21T00:10:25;21.80;76.10
72604;DHT22;60645;56.968;24.196;2022-08-21T00:12:52;21.70;76.10
72604;DHT22;60645;56.968;24.196;2022-08-21T00:15:25;21.70;76.10
72604;DHT22;60645;56.968;24.196;2022-08-21T00:17:54;21.80;75.90
72604;DHT22;60645;56.968;24.196;2022-08-21T00:20:22;21.70;75.90
72604;DHT22;60645;56.968;24.196;2022-08-21T00:22:50;21.70;76.10
72604;DHT22;60645;56.968;24.196;2022-08-21T00:25:18;21.80;76.10
72604;DHT22;60645;56.968;24.196;2022-08-21T00:27:52;21.60;76.10
72604;DHT22;60645;56.968;24.196;2022-08-21T00:30:20;21.70;76.30
72604;DHT22;60645;56.968;24.196;2022-08-21T00:32:50;21.60;76.30
72604;DHT22;60645;56.968;24.196;2022-08-21T00:35:20;21.60;76.20
72604;DHT22;60645;56.968;24.196;2022-08-21T00:37:48;21.70;76.20
72604;DHT22;60645;56.968;24.196;2022-08-21T00:40:21;21.70;76.30
72604;DHT22;60645;56.968;24.196;2022-08-21T00:42:49;21.60;76.40
72604;DHT22;60645;56.968;24.196;2022-08-21T00:45:21;21.60;76.30
72604;DHT22;60645;56.968;24.196;2022-08-21T00:47:49;21.50;76.50
72604;DHT22;60645;56.968;24.196;2022-08-21T00:50:17;21.50;76.60
72604;DHT22;60645;56.968;24.196;2022-08-21T00:52:51;21.40;76.70
72604;DHT22;60645;56.968;24.196;2022-08-21T00:55:20;21.40;76.80
72604;DHT22;60645;56.968;24.196;2022-08-21T00:57:50;21.30;76.90
72604;DHT22;60645;56.968;24.196;2022-08-21T01:00:23;21.30;76.90
72604;DHT22;60645;56.968;24.196;2022-08-21T01:02:50;21.30;76.90
72604;DHT22;60645;56.968;24.196;2022-08-21T01:05:17;21.30;76.80
72604;DHT22;60645;56.968;24.196;2022-08-21T01:07:44;21.30;76.80
72604;DHT22;60645;56.968;24.196;2022-08-21T01:10:12;21.20;76.90
72604;DHT22;60645;56.968;24.196;2022-08-21T01:12:52;21.20;77.00
72604;DHT22;60645;56.968;24.196;2022-08-21T01:15:21;21.20;76.90
72604;DHT22;60645;56.968;24.196;2022-08-21T01:17:49;21.10;76.90
72604;DHT22;60645;56.968;24.196;2022-08-21T01:20:17;21.30;76.70
72604;DHT22;60645;56.968;24.196;2022-08-21T01:22:44;21.20;77.00
72604;DHT22;60645;56.968;24.196;2022-08-21T01:25:13;21.20;77.00
72604;DHT22;60645;56.968;24.196;2022-08-21T01:27:42;21.20;77.00
72604;DHT22;60645;56.968;24.196;2022-08-21T01:32:39;21.20;76.90
72604;DHT22;60645;56.968;24.196;2022-08-21T01:35:07;21.20;76.80
72604;DHT22;60645;56.968;24.196;2022-08-21T01:37:35;21.10;77.10
72604;DHT22;60645;56.968;24.196;2022-08-21T01:40:04;21.20;77.00
72604;DHT22;60645;56.968;24.196;2022-08-21T01:42:31;21.20;77.00
72604;DHT22;60645;56.968;24.196;2022-08-21T01:44:58;21.10;77.10
72604;DHT22;60645;56.968;24.196;2022-08-21T01:47:25;21.00;77.20
72604;DHT22;60645;56.968;24.196;2022-08-21T01:49:52;21.00;77.20
72604;DHT22;60645;56.968;24.196;2022-08-21T01:52:19;21.00;77.00
72604;DHT22;60645;56.968;24.196;2022-08-21T01:54:46;21.10;77.10
72604;DHT22;60645;56.968;24.196;2022-08-21T01:57:21;21.00;77.20
72604;DHT22;60645;56.968;24.196;2022-08-21T01:59:52;21.10;77.20
72604;DHT22;60645;56.968;24.196;2022-08-21T02:02:19;21.00;77.40
72604;DHT22;60645;56.968;24.196;2022-08-21T02:04:46;20.90;77.50
72604;DHT22;60645;56.968;24.196;2022-08-21T02:07:13;20.90;77.60
72604;DHT22;60645;56.968;24.196;2022-08-21T02:09:40;21.00;77.40
72604;DHT22;60645;56.968;24.196;2022-08-21T02:12:10;21.00;77.20
72604;DHT22;60645;56.968;24.196;2022-08-21T02:14:38;20.90;77.40
72604;DHT22;60645;56.968;24.196;2022-08-21T02:17:05;21.10;77.20
72604;DHT22;60645;56.968;24.196;2022-08-21T02:19:36;21.00;77.30
72604;DHT22;60645;56.968;24.196;2022-08-21T02:22:10;20.90;77.90
72604;DHT22;60645;56.968;24.196;2022-08-21T02:24:38;20.90;77.30
72604;DHT22;60645;56.968;24.196;2022-08-21T02:27:22;20.90;77.80
72604;DHT22;60645;56.968;24.196;2022-08-21T02:29:53;21.10;77.10
72604;DHT22;60645;56.968;24.196;2022-08-21T02:32:21;20.90;77.30
72604;DHT22;60645;56.968;24.196;2022-08-21T02:34:48;21.00;77.20
72604;DHT22;60645;56.968;24.196;2022-08-21T02:37:15;21.00;77.00
72604;DHT22;60645;56.968;24.196;2022-08-21T02:39:42;21.00;77.10
72604;DHT22;60645;56.968;24.196;2022-08-21T02:42:09;21.10;77.10
72604;DHT22;60645;56.968;24.196;2022-08-21T02:44:36;21.00;76.90
72604;DHT22;60645;56.968;24.196;2022-08-21T02:47:03;21.00;77.10
72604;DHT22;60645;56.968;24.196;2022-08-21T02:49:30;21.00;77.10
72604;DHT22;60645;56.968;24.196;2022-08-21T02:51:57;21.00;77.10
72604;DHT22;60645;56.968;24.196;2022-08-21T02:54:24;20.90;77.20
72604;DHT22;60645;56.968;24.196;2022-08-21T02:56:51;21.00;77.30
72604;DHT22;60645;56.968;24.196;2022-08-21T02:59:18;20.90;77.40
72604;DHT22;60645;56.968;24.196;2022-08-21T03:01:45;21.00;77.30
72604;DHT22;60645;56.968;24.196;2022-08-21T03:04:12;21.10;77.20
72604;DHT22;60645;56.968;24.196;2022-08-21T03:06:39;21.10;77.10
72604;DHT22;60645;56.968;24.196;2022-08-21T03:09:06;21.00;77.20
72604;DHT22;60645;56.968;24.196;2022-08-21T03:11:33;21.00;77.30
72604;DHT22;60645;56.968;24.196;2022-08-21T03:14:00;21.00;77.40
72604;DHT22;60645;56.968;24.196;2022-08-21T03:16:27;20.90;77.60
72604;DHT22;60645;56.968;24.196;2022-08-21T03:19:00;20.80;78.10
72604;DHT22;60645;56.968;24.196;2022-08-21T03:21:27;20.90;77.70
72604;DHT22;60645;56.968;24.196;2022-08-21T03:23:55;20.80;78.30
72604;DHT22;60645;56.968;24.196;2022-08-21T03:26:22;20.90;77.60
72604;DHT22;60645;56.968;24.196;2022-08-21T03:28:49;21.00;77.40
72604;DHT22;60645;56.968;24.196;2022-08-21T03:31:17;21.00;77.30
72604;DHT22;60645;56.968;24.196;2022-08-21T03:33:44;21.00;77.50
72604;DHT22;60645;56.968;24.196;2022-08-21T03:36:12;20.90;77.80
72604;DHT22;60645;56.968;24.196;2022-08-21T03:38:39;20.80;78.30
72604;DHT22;60645;56.968;24.196;2022-08-21T03:41:07;20.90;78.40
72604;DHT22;60645;56.968;24.196;2022-08-21T03:43:35;21.00;77.90
72604;DHT22;60645;56.968;24.196;2022-08-21T03:46:03;20.90;78.50
72604;DHT22;60645;56.968;24.196;2022-08-21T03:48:33;20.80;78.30
72604;DHT22;60645;56.968;24.196;2022-08-21T03:51:01;20.90;78.50
72604;DHT22;60645;56.968;24.196;2022-08-21T03:53:28;20.80;78.50
72604;DHT22;60645;56.968;24.196;2022-08-21T03:55:56;21.00;77.90
72604;DHT22;60645;56.968;24.196;2022-08-21T03:58:27;21.20;77.60
72604;DHT22;60645;56.968;24.196;2022-08-21T04:00:56;21.20;77.40
72604;DHT22;60645;56.968;24.196;2022-08-21T04:03:25;21.30;77.30
72604;DHT22;60645;56.968;24.196;2022-08-21T04:05:52;21.50;76.90
72604;DHT22;60645;56.968;24.196;2022-08-21T04:08:19;21.50;76.70
72604;DHT22;60645;56.968;24.196;2022-08-21T04:10:48;21.50;76.60
72604;DHT22;60645;56.968;24.196;2022-08-21T04:13:16;21.70;76.30
72604;DHT22;60645;56.968;24.196;2022-08-21T04:15:43;21.70;76.10
72604;DHT22;60645;56.968;24.196;2022-08-21T04:18:10;21.80;76.00
72604;DHT22;60645;56.968;24.196;2022-08-21T04:20:38;21.90;75.50
72604;DHT22;60645;56.968;24.196;2022-08-21T04:23:06;21.90;75.10
72604;DHT22;60645;56.968;24.196;2022-08-21T04:25:33;22.00;75.10
72604;DHT22;60645;56.968;24.196;2022-08-21T04:28:00;21.90;75.30
72604;DHT22;60645;56.968;24.196;2022-08-21T04:30:28;22.10;75.10
72604;DHT22;60645;56.968;24.196;2022-08-21T04:32:56;22.20;74.90
72604;DHT22;60645;56.968;24.196;2022-08-21T04:35:27;22.20;74.50
72604;DHT22;60645;56.968;24.196;2022-08-21T04:37:54;22.30;74.20
72604;DHT22;60645;56.968;24.196;2022-08-21T04:40:24;22.40;73.90
72604;DHT22;60645;56.968;24.196;2022-08-21T04:42:58;22.50;73.60
72604;DHT22;60645;56.968;24.196;2022-08-21T04:45:32;22.40;73.50
72604;DHT22;60645;56.968;24.196;2022-08-21T04:48:01;22.40;73.60
72604;DHT22;60645;56.968;24.196;2022-08-21T04:50:41;22.40;73.60
72604;DHT22;60645;56.968;24.196;2022-08-21T04:53:16;22.30;74.00
72604;DHT22;60645;56.968;24.196;2022-08-21T04:55:44;22.40;73.70
72604;DHT22;60645;56.968;24.196;2022-08-21T04:58:15;22.40;73.40
72604;DHT22;60645;56.968;24.196;2022-08-21T05:00:44;22.50;73.40
72604;DHT22;60645;56.968;24.196;2022-08-21T05:03:13;22.50;73.40
72604;DHT22;60645;56.968;24.196;2022-08-21T05:05:41;22.50;73.50
72604;DHT22;60645;56.968;24.196;2022-08-21T05:08:12;22.70;73.00
72604;DHT22;60645;56.968;24.196;2022-08-21T05:10:41;22.60;73.10
72604;DHT22;60645;56.968;24.196;2022-08-21T05:13:09;22.70;73.00
72604;DHT22;60645;56.968;24.196;2022-08-21T05:15:36;23.00;71.70
72604;DHT22;60645;56.968;24.196;2022-08-21T05:18:04;23.60;70.20
72604;DHT22;60645;56.968;24.196;2022-08-21T05:20:31;24.00;69.00
72604;DHT22;60645;56.968;24.196;2022-08-21T05:23:01;24.40;67.20
72604;DHT22;60645;56.968;24.196;2022-08-21T05:25:34;24.70;66.40
72604;DHT22;60645;56.968;24.196;2022-08-21T05:28:01;24.60;66.10
72604;DHT22;60645;56.968;24.196;2022-08-21T05:30:28;24.70;66.00
72604;DHT22;60645;56.968;24.196;2022-08-21T05:33:00;24.70;66.00
72604;DHT22;60645;56.968;24.196;2022-08-21T05:35:28;25.10;65.00
72604;DHT22;60645;56.968;24.196;2022-08-21T05:37:56;25.50;63.60
72604;DHT22;60645;56.968;24.196;2022-08-21T05:40:23;25.80;62.70
72604;DHT22;60645;56.968;24.196;2022-08-21T05:42:52;26.10;61.90
72604;DHT22;60645;56.968;24.196;2022-08-21T05:45:33;26.40;61.10
72604;DHT22;60645;56.968;24.196;2022-08-21T05:48:21;26.80;60.10
72604;DHT22;60645;56.968;24.196;2022-08-21T05:50:49;27.20;59.40
72604;DHT22;60645;56.968;24.196;2022-08-21T05:53:17;27.50;58.50
72604;DHT22;60645;56.968;24.196;2022-08-21T05:55:45;27.80;57.50
72604;DHT22;60645;56.968;24.196;2022-08-21T05:58:19;27.70;57.80
72604;DHT22;60645;56.968;24.196;2022-08-21T06:00:47;27.80;57.00
72604;DHT22;60645;56.968;24.196;2022-08-21T06:03:22;28.00;56.70
72604;DHT22;60645;56.968;24.196;2022-08-21T06:05:49;28.30;56.00
72604;DHT22;60645;56.968;24.196;2022-08-21T06:08:17;28.60;55.20
72604;DHT22;60645;56.968;24.196;2022-08-21T06:10:46;28.90;54.20
72604;DHT22;60645;56.968;24.196;2022-08-21T06:13:14;29.00;54.00
72604;DHT22;60645;56.968;24.196;2022-08-21T06:15:41;29.10;54.10
72604;DHT22;60645;56.968;24.196;2022-08-21T06:18:08;29.40;53.60
72604;DHT22;60645;56.968;24.196;2022-08-21T06:20:35;29.70;53.10
72604;DHT22;60645;56.968;24.196;2022-08-21T06:23:03;30.10;51.80
72604;DHT22;60645;56.968;24.196;2022-08-21T06:25:30;30.30;51.50
72604;DHT22;60645;56.968;24.196;2022-08-21T06:28:07;30.40;51.40
72604;DHT22;60645;56.968;24.196;2022-08-21T06:30:35;30.30;51.20
72604;DHT22;60645;56.968;24.196;2022-08-21T06:33:03;30.40;50.90
72604;DHT22;60645;56.968;24.196;2022-08-21T06:35:30;30.50;50.60
72604;DHT22;60645;56.968;24.196;2022-08-21T06:37:57;30.80;50.10
72604;DHT22;60645;56.968;24.196;2022-08-21T06:40:26;31.10;49.80
72604;DHT22;60645;56.968;24.196;2022-08-21T06:42:56;31.10;49.70
72604;DHT22;60645;56.968;24.196;2022-08-21T06:45:26;31.10;49.70
72604;DHT22;60645;56.968;24.196;2022-08-21T06:47:58;31.20;49.70
72604;DHT22;60645;56.968;24.196;2022-08-21T06:50:25;31.50;49.10
72604;DHT22;60645;56.968;24.196;2022-08-21T06:53:07;31.90;48.50
72604;DHT22;60645;56.968;24.196;2022-08-21T06:55:34;31.80;48.10
72604;DHT22;60645;56.968;24.196;2022-08-21T06:58:02;32.20;47.80
72604;DHT22;60645;56.968;24.196;2022-08-21T07:00:29;32.10;47.70
72604;DHT22;60645;56.968;24.196;2022-08-21T07:02:57;32.00;47.70
72604;DHT22;60645;56.968;24.196;2022-08-21T07:05:26;32.20;47.60
72604;DHT22;60645;56.968;24.196;2022-08-21T07:07:53;32.00;48.00
72604;DHT22;60645;56.968;24.196;2022-08-21T07:10:20;32.10;47.80
72604;DHT22;60645;56.968;24.196;2022-08-21T07:12:49;32.30;47.20
72604;DHT22;60645;56.968;24.196;2022-08-21T07:15:25;32.60;46.80
72604;DHT22;60645;56.968;24.196;2022-08-21T07:17:52;32.50;46.90
72604;DHT22;60645;56.968;24.196;2022-08-21T07:20:19;32.90;46.20
72604;DHT22;60645;56.968;24.196;2022-08-21T07:22:46;33.10;46.10
72604;DHT22;60645;56.968;24.196;2022-08-21T07:25:13;33.20;45.90
72604;DHT22;60645;56.968;24.196;2022-08-21T07:27:40;33.40;45.60
72604;DHT22;60645;56.968;24.196;2022-08-21T07:30:07;33.70;45.00
72604;DHT22;60645;56.968;24.196;2022-08-21T07:32:34;33.90;44.80
72604;DHT22;60645;56.968;24.196;2022-08-21T07:35:01;33.90;44.60
72604;DHT22;60645;56.968;24.196;2022-08-21T07:37:28;33.90;44.80
72604;DHT22;60645;56.968;24.196;2022-08-21T07:39:55;34.20;44.10
72604;DHT22;60645;56.968;24.196;2022-08-21T07:42:23;34.20;44.00
72604;DHT22;60645;56.968;24.196;2022-08-21T07:44:51;34.00;44.40
72604;DHT22;60645;56.968;24.196;2022-08-21T07:47:22;33.70;44.70
72604;DHT22;60645;56.968;24.196;2022-08-21T07:50:07;33.30;45.40
72604;DHT22;60645;56.968;24.196;2022-08-21T07:52:35;33.50;45.20
72604;DHT22;60645;56.968;24.196;2022-08-21T07:55:02;33.40;45.10
72604;DHT22;60645;56.968;24.196;2022-08-21T07:57:32;33.40;45.10
72604;DHT22;60645;56.968;24.196;2022-08-21T07:59:59;33.30;45.20
72604;DHT22;60645;56.968;24.196;2022-08-21T08:02:28;33.20;45.30
72604;DHT22;60645;56.968;24.196;2022-08-21T08:05:09;33.40;45.30
72604;DHT22;60645;56.968;24.196;2022-08-21T08:07:36;32.90;45.70
72604;DHT22;60645;56.968;24.196;2022-08-21T08:10:05;32.90;45.90
72604;DHT22;60645;56.968;24.196;2022-08-21T08:12:34;33.40;45.30
72604;DHT22;60645;56.968;24.196;2022-08-21T08:15:01;33.60;44.60
72604;DHT22;60645;56.968;24.196;2022-08-21T08:17:28;33.90;44.30
72604;DHT22;60645;56.968;24.196;2022-08-21T08:19:55;33.00;45.10
72604;DHT22;60645;56.968;24.196;2022-08-21T08:22:22;32.70;46.10
72604;DHT22;60645;56.968;24.196;2022-08-21T08:24:51;33.20;45.30
72604;DHT22;60645;56.968;24.196;2022-08-21T08:27:19;33.40;44.70
72604;DHT22;60645;56.968;24.196;2022-08-21T08:29:46;33.50;44.50
72604;DHT22;60645;56.968;24.196;2022-08-21T08:32:14;33.90;44.10
72604;DHT22;60645;56.968;24.196;2022-08-21T08:34:41;34.50;43.20
72604;DHT22;60645;56.968;24.196;2022-08-21T08:37:09;34.50;42.90
72604;DHT22;60645;56.968;24.196;2022-08-21T08:39:37;34.20;43.30
72604;DHT22;60645;56.968;24.196;2022-08-21T08:47:30;34.90;42.80
72604;DHT22;60645;56.968;24.196;2022-08-21T08:52:37;33.50;43.70
72604;DHT22;60645;56.968;24.196;2022-08-21T08:55:20;33.20;44.40
72604;DHT22;60645;56.968;24.196;2022-08-21T08:57:53;32.70;45.30
72604;DHT22;60645;56.968;24.196;2022-08-21T09:00:22;32.90;45.20
72604;DHT22;60645;56.968;24.196;2022-08-21T09:02:52;33.10;44.60
72604;DHT22;60645;56.968;24.196;2022-08-21T09:05:40;33.00;45.00
72604;DHT22;60645;56.968;24.196;2022-08-21T09:11:29;33.20;44.50
72604;DHT22;60645;56.968;24.196;2022-08-21T09:17:24;34.10;42.90
72604;DHT22;60645;56.968;24.196;2022-08-21T09:28:16;32.70;44.40
72604;DHT22;60645;56.968;24.196;2022-08-21T09:30:43;32.50;45.00
72604;DHT22;60645;56.968;24.196;2022-08-21T09:33:12;32.30;45.20
72604;DHT22;60645;56.968;24.196;2022-08-21T09:35:53;32.10;45.80
72604;DHT22;60645;56.968;24.196;2022-08-21T09:38:30;31.60;46.20
72604;DHT22;60645;56.968;24.196;2022-08-21T09:41:05;31.10;47.60
72604;DHT22;60645;56.968;24.196;2022-08-21T09:43:33;30.60;48.70
72604;DHT22;60645;56.968;24.196;2022-08-21T09:46:10;30.70;48.70
72604;DHT22;60645;56.968;24.196;2022-08-21T09:48:44;30.60;48.40
72604;DHT22;60645;56.968;24.196;2022-08-21T09:51:17;30.00;49.30
72604;DHT22;60645;56.968;24.196;2022-08-21T09:59:46;28.80;52.00
72604;DHT22;60645;56.968;24.196;2022-08-21T10:02:29;28.30;53.20
72604;DHT22;60645;56.968;24.196;2022-08-21T10:05:23;28.10;54.00
72604;DHT22;60645;56.968;24.196;2022-08-21T10:07:50;28.30;53.70
72604;DHT22;60645;56.968;24.196;2022-08-21T10:10:23;28.30;53.50
72604;DHT22;60645;56.968;24.196;2022-08-21T10:21:28;28.90;52.10
72604;DHT22;60645;56.968;24.196;2022-08-21T10:40:37;27.80;54.70
72604;DHT22;60645;56.968;24.196;2022-08-21T10:48:37;27.90;55.50
72604;DHT22;60645;56.968;24.196;2022-08-21T10:51:28;28.10;54.60
72604;DHT22;60645;56.968;24.196;2022-08-21T10:54:03;28.20;54.40
72604;DHT22;60645;56.968;24.196;2022-08-21T10:56:35;28.30;54.10
72604;DHT22;60645;56.968;24.196;2022-08-21T11:01:51;28.10;54.40
72604;DHT22;60645;56.968;24.196;2022-08-21T11:07:31;27.40;55.60
72604;DHT22;60645;56.968;24.196;2022-08-21T11:10:15;27.40;56.60
72604;DHT22;60645;56.968;24.196;2022-08-21T11:12:50;27.40;56.20
72604;DHT22;60645;56.968;24.196;2022-08-21T11:18:22;27.30;56.70
72604;DHT22;60645;56.968;24.196;2022-08-21T11:24:19;27.10;57.40
72604;DHT22;60645;56.968;24.196;2022-08-21T11:26:43;27.00;57.70
72604;DHT22;60645;56.968;24.196;2022-08-21T11:29:31;26.90;57.90
72604;DHT22;60645;56.968;24.196;2022-08-21T11:40:36;26.90;57.90
72604;DHT22;60645;56.968;24.196;2022-08-21T11:45:50;26.70;58.50
72604;DHT22;60645;56.968;24.196;2022-08-21T11:51:07;26.70;58.70
72604;DHT22;60645;56.968;24.196;2022-08-21T11:53:48;26.70;58.70
72604;DHT22;60645;56.968;24.196;2022-08-21T11:56:38;26.70;58.90
72604;DHT22;60645;56.968;24.196;2022-08-21T11:59:16;26.60;58.80
72604;DHT22;60645;56.968;24.196;2022-08-21T12:01:48;26.60;58.40
72604;DHT22;60645;56.968;24.196;2022-08-21T12:04:33;26.70;58.30
72604;DHT22;60645;56.968;24.196;2022-08-21T12:09:58;26.70;58.40
72604;DHT22;60645;56.968;24.196;2022-08-21T12:12:35;26.80;58.20
72604;DHT22;60645;56.968;24.196;2022-08-21T12:24:00;26.50;59.40
72604;DHT22;60645;56.968;24.196;2022-08-21T12:26:30;26.50;59.70
72604;DHT22;60645;56.968;24.196;2022-08-21T12:29:24;26.50;59.20
72604;DHT22;60645;56.968;24.196;2022-08-21T12:31:56;26.30;59.50
72604;DHT22;60645;56.968;24.196;2022-08-21T12:34:33;26.20;59.80
72604;DHT22;60645;56.968;24.196;2022-08-21T12:37:02;26.20;60.30
72604;DHT22;60645;56.968;24.196;2022-08-21T12:39:33;26.00;60.70
72604;DHT22;60645;56.968;24.196;2022-08-21T12:42:30;25.90;61.40
72604;DHT22;60645;56.968;24.196;2022-08-21T12:45:04;25.90;61.40
72604;DHT22;60645;56.968;24.196;2022-08-21T12:47:33;25.90;61.70
72604;DHT22;60645;56.968;24.196;2022-08-21T12:50:16;25.90;61.60
72604;DHT22;60645;56.968;24.196;2022-08-21T12:53:05;25.90;61.70
72604;DHT22;60645;56.968;24.196;2022-08-21T12:55:47;25.80;61.90
72604;DHT22;60645;56.968;24.196;2022-08-21T12:58:22;25.80;61.80
72604;DHT22;60645;56.968;24.196;2022-08-21T13:01:03;25.60;62.50
72604;DHT22;60645;56.968;24.196;2022-08-21T13:03:35;25.50;62.80
72604;DHT22;60645;56.968;24.196;2022-08-21T13:06:06;25.60;62.80
72604;DHT22;60645;56.968;24.196;2022-08-21T13:08:36;25.70;62.60
72604;DHT22;60645;56.968;24.196;2022-08-21T13:11:07;25.80;62.60
72604;DHT22;60645;56.968;24.196;2022-08-21T13:13:41;25.90;62.30
72604;DHT22;60645;56.968;24.196;2022-08-21T13:16:24;25.80;62.60
72604;DHT22;60645;56.968;24.196;2022-08-21T13:18:58;25.80;62.30
72604;DHT22;60645;56.968;24.196;2022-08-21T13:21:43;25.90;62.10
72604;DHT22;60645;56.968;24.196;2022-08-21T13:26:57;26.00;61.80
72604;DHT22;60645;56.968;24.196;2022-08-21T13:29:29;26.10;61.50
72604;DHT22;60645;56.968;24.196;2022-08-21T13:31:59;26.10;60.90
72604;DHT22;60645;56.968;24.196;2022-08-21T13:34:34;26.20;61.40
72604;DHT22;60645;56.968;24.196;2022-08-21T13:37:04;26.30;60.80
72604;DHT22;60645;56.968;24.196;2022-08-21T13:39:32;26.30;60.70
72604;DHT22;60645;56.968;24.196;2022-08-21T13:42:02;26.40;60.70
72604;DHT22;60645;56.968;24.196;2022-08-21T13:44:34;26.40;60.80
72604;DHT22;60645;56.968;24.196;2022-08-21T13:47:03;26.30;61.00
72604;DHT22;60645;56.968;24.196;2022-08-21T13:49:34;26.40;61.20
72604;DHT22;60645;56.968;24.196;2022-08-21T13:52:02;26.30;60.90
72604;DHT22;60645;56.968;24.196;2022-08-21T13:54:36;26.20;61.50
72604;DHT22;60645;56.968;24.196;2022-08-21T13:57:04;26.10;61.80
72604;DHT22;60645;56.968;24.196;2022-08-21T13:59:33;26.00;62.00
72604;DHT22;60645;56.968;24.196;2022-08-21T14:04:38;25.90;62.00
72604;DHT22;60645;56.968;24.196;2022-08-21T14:09:56;26.00;62.10
72604;DHT22;60645;56.968;24.196;2022-08-21T14:12:41;26.00;62.40
72604;DHT22;60645;56.968;24.196;2022-08-21T14:15:09;25.90;62.20
72604;DHT22;60645;56.968;24.196;2022-08-21T14:17:40;25.90;62.40
72604;DHT22;60645;56.968;24.196;2022-08-21T14:20:13;25.90;62.20
72604;DHT22;60645;56.968;24.196;2022-08-21T14:22:52;26.00;62.10
72604;DHT22;60645;56.968;24.196;2022-08-21T14:27:51;26.00;62.30
72604;DHT22;60645;56.968;24.196;2022-08-21T14:30:31;26.00;62.00
72604;DHT22;60645;56.968;24.196;2022-08-21T14:32:59;26.10;62.20
72604;DHT22;60645;56.968;24.196;2022-08-21T14:35:27;26.00;62.10
72604;DHT22;60645;56.968;24.196;2022-08-21T14:37:55;26.00;62.10
72604;DHT22;60645;56.968;24.196;2022-08-21T14:40:24;25.90;62.40
72604;DHT22;60645;56.968;24.196;2022-08-21T14:42:51;25.90;62.70
72604;DHT22;60645;56.968;24.196;2022-08-21T14:45:27;25.90;62.70
72604;DHT22;60645;56.968;24.196;2022-08-21T14:47:56;25.90;62.90
72604;DHT22;60645;56.968;24.196;2022-08-21T14:50:23;25.70;63.50
72604;DHT22;60645;56.968;24.196;2022-08-21T14:52:54;25.70;63.60
72604;DHT22;60645;56.968;24.196;2022-08-21T14:55:21;25.60;63.90
72604;DHT22;60645;56.968;24.196;2022-08-21T14:57:50;25.60;63.60
72604;DHT22;60645;56.968;24.196;2022-08-21T15:00:21;25.80;63.40
72604;DHT22;60645;56.968;24.196;2022-08-21T15:03:02;25.80;63.50
72604;DHT22;60645;56.968;24.196;2022-08-21T15:05:29;25.70;63.20
72604;DHT22;60645;56.968;24.196;2022-08-21T15:07:59;25.70;63.40
72604;DHT22;60645;56.968;24.196;2022-08-21T15:10:27;25.70;63.40
72604;DHT22;60645;56.968;24.196;2022-08-21T15:12:54;25.70;63.30
72604;DHT22;60645;56.968;24.196;2022-08-21T15:15:21;25.70;63.40
72604;DHT22;60645;56.968;24.196;2022-08-21T15:17:48;25.80;63.20
72604;DHT22;60645;56.968;24.196;2022-08-21T15:20:15;25.90;63.10
72604;DHT22;60645;56.968;24.196;2022-08-21T15:22:42;25.80;63.20
72604;DHT22;60645;56.968;24.196;2022-08-21T15:25:14;25.70;63.60
72604;DHT22;60645;56.968;24.196;2022-08-21T15:27:40;25.80;63.90
72604;DHT22;60645;56.968;24.196;2022-08-21T15:30:08;25.70;63.80
72604;DHT22;60645;56.968;24.196;2022-08-21T15:32:35;25.80;64.00
72604;DHT22;60645;56.968;24.196;2022-08-21T15:35:02;25.70;63.60
72604;DHT22;60645;56.968;24.196;2022-08-21T15:37:30;25.70;63.90
72604;DHT22;60645;56.968;24.196;2022-08-21T15:39:57;25.70;63.90
72604;DHT22;60645;56.968;24.196;2022-08-21T15:42:26;25.70;64.20
72604;DHT22;60645;56.968;24.196;2022-08-21T15:44:54;25.70;64.20
72604;DHT22;60645;56.968;24.196;2022-08-21T15:47:25;25.60;64.30
72604;DHT22;60645;56.968;24.196;2022-08-21T15:49:54;25.60;64.20
72604;DHT22;60645;56.968;24.196;2022-08-21T15:52:22;25.60;64.70
72604;DHT22;60645;56.968;24.196;2022-08-21T15:54:50;25.60;64.50
72604;DHT22;60645;56.968;24.196;2022-08-21T15:57:20;25.60;64.20
72604;DHT22;60645;56.968;24.196;2022-08-21T15:59:50;25.70;64.00
72604;DHT22;60645;56.968;24.196;2022-08-21T16:02:27;25.90;63.60
72604;DHT22;60645;56.968;24.196;2022-08-21T16:04:56;25.90;63.50
72604;DHT22;60645;56.968;24.196;2022-08-21T16:07:23;25.70;63.60
72604;DHT22;60645;56.968;24.196;2022-08-21T16:09:50;25.70;64.00
72604;DHT22;60645;56.968;24.196;2022-08-21T16:12:29;25.60;64.30
72604;DHT22;60645;56.968;24.196;2022-08-21T16:14:58;25.60;64.40
72604;DHT22;60645;56.968;24.196;2022-08-21T16:17:31;25.50;64.70
72604;DHT22;60645;56.968;24.196;2022-08-21T16:20:00;25.50;65.00
72604;DHT22;60645;56.968;24.196;2022-08-21T16:22:27;25.50;65.10
72604;DHT22;60645;56.968;24.196;2022-08-21T16:25:11;25.50;64.80
72604;DHT22;60645;56.968;24.196;2022-08-21T16:27:40;25.50;64.90
72604;DHT22;60645;56.968;24.196;2022-08-21T16:30:09;25.50;65.40
72604;DHT22;60645;56.968;24.196;2022-08-21T16:32:37;25.40;65.40
72604;DHT22;60645;56.968;24.196;2022-08-21T16:35:04;25.40;65.40
72604;DHT22;60645;56.968;24.196;2022-08-21T16:37:31;25.40;65.40
72604;DHT22;60645;56.968;24.196;2022-08-21T16:39:58;25.40;65.30
72604;DHT22;60645;56.968;24.196;2022-08-21T16:42:25;25.40;65.30
72604;DHT22;60645;56.968;24.196;2022-08-21T16:44:53;25.40;65.00
72604;DHT22;60645;56.968;24.196;2022-08-21T16:47:21;25.40;65.10
72604;DHT22;60645;56.968;24.196;2022-08-21T16:49:52;25.50;65.40
72604;DHT22;60645;56.968;24.196;2022-08-21T16:52:19;25.40;65.30
72604;DHT22;60645;56.968;24.196;2022-08-21T16:54:46;25.40;65.20
72604;DHT22;60645;56.968;24.196;2022-08-21T16:57:13;25.40;65.40
72604;DHT22;60645;56.968;24.196;2022-08-21T16:59:40;25.30;65.40
72604;DHT22;60645;56.968;24.196;2022-08-21T17:02:25;25.40;65.40
72604;DHT22;60645;56.968;24.196;2022-08-21T17:04:53;25.30;65.60
72604;DHT22;60645;56.968;24.196;2022-08-21T17:07:21;25.30;65.70
72604;DHT22;60645;56.968;24.196;2022-08-21T17:09:48;25.20;65.90
72604;DHT22;60645;56.968;24.196;2022-08-21T17:12:16;25.20;66.10
72604;DHT22;60645;56.968;24.196;2022-08-21T17:14:43;25.20;66.20
72604;DHT22;60645;56.968;24.196;2022-08-21T17:17:10;25.30;66.20
72604;DHT22;60645;56.968;24.196;2022-08-21T17:19:38;25.30;66.10
72604;DHT22;60645;56.968;24.196;2022-08-21T17:22:05;25.30;66.20
72604;DHT22;60645;56.968;24.196;2022-08-21T17:24:33;25.20;66.50